createdAt,value
2018-03-29T00:00:29.400Z,0.00
2018-03-29T00:01:29.484Z,0.00
2018-03-29T00:02:29.388Z,0.00
2018-03-29T00:03:29.382Z,0.00
2018-03-29T00:04:29.382Z,0.00
2018-03-29T00:05:29.384Z,0.00
2018-03-29T00:06:29.375Z,0.00
2018-03-29T00:07:29.372Z,0.00
2018-03-29T00:08:29.367Z,0.00
2018-03-29T00:09:29.368Z,0.00
2018-03-29T00:10:29.362Z,0.00
2018-03-29T00:11:29.355Z,0.00
2018-03-29T00:12:29.350Z,0.00
2018-03-29T00:13:29.346Z,0.00
2018-03-29T00:14:29.368Z,0.00
2018-03-29T00:15:29.345Z,0.00
2018-03-29T00:16:29.336Z,0.00
2018-03-29T00:17:29.332Z,0.00
2018-03-29T00:18:29.357Z,0.00
2018-03-29T00:19:29.325Z,0.00
2018-03-29T00:20:29.317Z,0.00
2018-03-29T00:21:29.313Z,0.00
2018-03-29T00:22:29.309Z,0.00
2018-03-29T00:23:29.305Z,0.00
2018-03-29T00:24:29.303Z,0.00
2018-03-29T00:25:29.298Z,0.00
2018-03-29T00:26:29.292Z,0.00
2018-03-29T00:27:29.348Z,0.00
2018-03-29T00:28:29.285Z,0.00
2018-03-29T00:29:29.279Z,0.00
2018-03-29T00:30:29.277Z,0.00
2018-03-29T00:31:29.272Z,0.00
2018-03-29T00:32:29.277Z,0.00
2018-03-29T00:33:29.263Z,0.00
2018-03-29T00:34:29.263Z,0.00
2018-03-29T00:35:29.256Z,0.00
2018-03-29T00:36:29.250Z,0.00
2018-03-29T00:37:29.249Z,0.00
2018-03-29T00:38:29.244Z,0.00
2018-03-29T00:39:29.245Z,0.00
2018-03-29T00:40:29.237Z,0.00
2018-03-29T00:41:29.229Z,0.00
2018-03-29T00:42:29.225Z,0.00
2018-03-29T00:43:29.223Z,0.00
2018-03-29T00:44:29.218Z,0.00
2018-03-29T00:45:29.214Z,0.00
2018-03-29T00:46:29.214Z,0.00
2018-03-29T00:47:29.208Z,0.00
2018-03-29T00:48:29.204Z,0.00
2018-03-29T00:49:29.200Z,0.00
2018-03-29T00:50:29.191Z,0.00
2018-03-29T00:51:29.188Z,0.00
2018-03-29T00:52:29.186Z,0.00
2018-03-29T00:53:29.177Z,0.00
2018-03-29T00:54:29.174Z,0.00
2018-03-29T00:55:29.169Z,0.00
2018-03-29T00:56:29.172Z,0.00
2018-03-29T00:57:29.159Z,0.00
2018-03-29T00:58:29.158Z,0.00
2018-03-29T00:59:29.158Z,0.00
2018-03-29T01:00:29.148Z,0.00
2018-03-29T01:01:29.141Z,0.00
2018-03-29T01:02:29.146Z,0.00
2018-03-29T01:03:29.138Z,0.00
2018-03-29T01:04:29.129Z,0.00
2018-03-29T01:05:29.132Z,0.00
2018-03-29T01:06:29.125Z,0.00
2018-03-29T01:07:29.120Z,0.00
2018-03-29T01:08:29.120Z,0.00
2018-03-29T01:09:29.117Z,0.00
2018-03-29T01:10:29.103Z,0.00
2018-03-29T01:11:29.102Z,0.00
2018-03-29T01:12:29.094Z,0.00
2018-03-29T01:13:29.092Z,0.00
2018-03-29T01:14:29.085Z,0.00
2018-03-29T01:15:29.082Z,0.00
2018-03-29T01:16:29.078Z,0.00
2018-03-29T01:17:29.073Z,0.00
2018-03-29T01:18:29.067Z,0.00
2018-03-29T01:19:29.062Z,0.00
2018-03-29T01:20:29.061Z,0.00
2018-03-29T01:21:29.064Z,0.00
2018-03-29T01:22:29.054Z,0.00
2018-03-29T01:23:29.049Z,0.00
2018-03-29T01:24:29.042Z,0.00
2018-03-29T01:25:29.038Z,0.00
2018-03-29T01:26:29.032Z,0.00
2018-03-29T01:27:29.029Z,0.00
2018-03-29T01:28:29.028Z,0.00
2018-03-29T01:29:29.017Z,0.00
2018-03-29T01:30:29.013Z,0.00
2018-03-29T01:31:29.027Z,0.00
2018-03-29T01:32:29.007Z,0.00
2018-03-29T01:33:29.000Z,0.00
2018-03-29T01:34:28.993Z,0.00
2018-03-29T01:35:28.993Z,0.00
2018-03-29T01:36:28.995Z,0.00
2018-03-29T01:37:28.986Z,0.00
2018-03-29T01:38:28.977Z,0.00
2018-03-29T01:39:28.972Z,0.00
2018-03-29T01:40:28.970Z,0.00
2018-03-29T01:41:28.967Z,0.00
2018-03-29T01:42:28.964Z,0.00
2018-03-29T01:43:28.956Z,0.00
2018-03-29T01:44:28.952Z,0.00
2018-03-29T01:45:28.946Z,0.00
2018-03-29T01:46:28.942Z,0.00
2018-03-29T01:47:28.938Z,0.00
2018-03-29T01:48:28.931Z,0.00
2018-03-29T01:49:28.929Z,0.00
2018-03-29T01:50:28.928Z,0.00
2018-03-29T01:51:28.922Z,0.00
2018-03-29T01:52:28.913Z,0.00
2018-03-29T01:53:28.914Z,0.00
2018-03-29T01:54:28.904Z,0.00
2018-03-29T01:55:28.908Z,0.00
2018-03-29T01:56:28.894Z,0.00
2018-03-29T01:57:28.889Z,0.00
2018-03-29T01:58:28.887Z,0.00
2018-03-29T01:59:28.879Z,0.00
2018-03-29T02:00:28.878Z,0.00
2018-03-29T02:01:28.894Z,0.00
2018-03-29T02:02:28.883Z,0.00
2018-03-29T02:03:28.864Z,0.00
2018-03-29T02:04:28.880Z,0.00
2018-03-29T02:05:28.853Z,0.00
2018-03-29T02:06:28.858Z,0.00
2018-03-29T02:07:28.842Z,0.00
2018-03-29T02:08:28.840Z,0.00
2018-03-29T02:09:28.834Z,0.00
2018-03-29T02:10:28.830Z,0.00
2018-03-29T02:11:28.824Z,0.00
2018-03-29T02:12:28.818Z,0.00
2018-03-29T02:13:28.822Z,0.00
2018-03-29T02:14:28.808Z,0.00
2018-03-29T02:15:28.805Z,0.00
2018-03-29T02:16:28.799Z,0.00
2018-03-29T02:17:28.796Z,0.00
2018-03-29T02:18:28.789Z,0.00
2018-03-29T02:19:28.786Z,0.00
2018-03-29T02:20:28.796Z,0.00
2018-03-29T02:21:28.774Z,0.00
2018-03-29T02:22:28.768Z,0.00
2018-03-29T02:23:28.764Z,0.00
2018-03-29T02:24:28.759Z,0.00
2018-03-29T02:25:28.761Z,0.00
2018-03-29T02:26:28.754Z,0.00
2018-03-29T02:27:28.745Z,0.00
2018-03-29T02:28:28.739Z,0.00
2018-03-29T02:29:28.736Z,0.00
2018-03-29T02:30:28.730Z,0.00
2018-03-29T02:31:28.723Z,0.00
2018-03-29T02:32:28.722Z,0.00
2018-03-29T02:33:28.715Z,0.00
2018-03-29T02:34:28.707Z,0.00
2018-03-29T02:35:28.702Z,0.00
2018-03-29T02:36:28.698Z,0.00
2018-03-29T02:37:28.693Z,0.00
2018-03-29T02:38:28.690Z,0.00
2018-03-29T02:39:28.682Z,0.00
2018-03-29T02:40:28.680Z,0.00
2018-03-29T02:41:28.674Z,0.00
2018-03-29T02:42:28.673Z,0.00
2018-03-29T02:43:28.662Z,0.00
2018-03-29T02:44:28.678Z,0.00
2018-03-29T02:45:28.651Z,0.00
2018-03-29T02:46:28.647Z,0.00
2018-03-29T02:47:28.642Z,0.00
2018-03-29T02:48:28.642Z,0.00
2018-03-29T02:49:28.638Z,0.00
2018-03-29T02:50:28.625Z,0.00
2018-03-29T02:51:28.623Z,0.00
2018-03-29T02:52:28.617Z,0.00
2018-03-29T02:53:28.641Z,0.00
2018-03-29T02:54:28.607Z,0.00
2018-03-29T02:55:28.609Z,0.00
2018-03-29T02:56:28.597Z,0.00
2018-03-29T02:57:28.589Z,0.00
2018-03-29T02:58:28.663Z,0.00
2018-03-29T02:59:28.581Z,0.00
2018-03-29T03:00:28.589Z,0.00
2018-03-29T03:01:28.566Z,0.00
2018-03-29T03:02:28.564Z,0.00
2018-03-29T03:03:28.566Z,0.00
2018-03-29T03:04:28.554Z,0.00
2018-03-29T03:05:28.562Z,0.00
2018-03-29T03:06:28.543Z,0.00
2018-03-29T03:07:28.540Z,0.00
2018-03-29T03:08:28.538Z,0.00
2018-03-29T03:09:28.528Z,0.00
2018-03-29T03:10:28.525Z,0.00
2018-03-29T03:11:28.521Z,0.00
2018-03-29T03:12:28.525Z,0.00
2018-03-29T03:13:28.510Z,0.00
2018-03-29T03:14:28.522Z,0.00
2018-03-29T03:15:28.500Z,0.00
2018-03-29T03:16:28.495Z,0.00
2018-03-29T03:17:28.490Z,0.00
2018-03-29T03:18:28.481Z,0.00
2018-03-29T03:19:28.478Z,0.00
2018-03-29T03:20:28.481Z,0.00
2018-03-29T03:21:28.469Z,0.00
2018-03-29T03:22:28.462Z,0.00
2018-03-29T03:23:28.458Z,0.00
2018-03-29T03:24:28.452Z,0.00
2018-03-29T03:25:28.448Z,0.00
2018-03-29T03:26:28.442Z,0.00
2018-03-29T03:27:28.434Z,0.00
2018-03-29T03:28:28.431Z,0.00
2018-03-29T03:29:28.433Z,0.00
2018-03-29T03:30:28.425Z,0.00
2018-03-29T03:31:28.418Z,0.00
2018-03-29T03:32:28.456Z,0.00
2018-03-29T03:33:28.411Z,0.00
2018-03-29T03:34:28.399Z,0.00
2018-03-29T03:35:28.401Z,0.00
2018-03-29T03:36:28.392Z,0.00
2018-03-29T03:37:28.382Z,0.00
2018-03-29T03:38:28.376Z,0.00
2018-03-29T03:39:28.432Z,0.00
2018-03-29T03:40:28.374Z,0.00
2018-03-29T03:41:28.454Z,0.00
2018-03-29T03:42:28.356Z,0.00
2018-03-29T03:43:28.360Z,0.00
2018-03-29T03:44:28.356Z,0.00
2018-03-29T03:45:28.344Z,0.00
2018-03-29T03:46:28.336Z,0.00
2018-03-29T03:47:28.331Z,0.00
2018-03-29T03:48:28.329Z,0.00
2018-03-29T03:49:28.320Z,0.00
2018-03-29T03:50:28.315Z,0.00
2018-03-29T03:51:28.309Z,0.00
2018-03-29T03:52:28.310Z,0.00
2018-03-29T03:53:28.975Z,0.00
2018-03-29T03:54:28.294Z,0.00
2018-03-29T03:55:28.293Z,0.00
2018-03-29T03:56:28.288Z,0.00
2018-03-29T03:57:28.282Z,0.00
2018-03-29T03:58:28.274Z,0.00
2018-03-29T03:59:28.268Z,0.00
2018-03-29T04:00:28.267Z,0.00
2018-03-29T04:01:28.263Z,0.00
2018-03-29T04:02:28.253Z,0.00
2018-03-29T04:03:28.250Z,0.00
2018-03-29T04:04:28.247Z,0.00
2018-03-29T04:05:28.238Z,0.00
2018-03-29T04:06:28.232Z,0.00
2018-03-29T04:07:28.238Z,0.00
2018-03-29T04:08:28.239Z,0.00
2018-03-29T04:09:28.218Z,0.00
2018-03-29T04:10:28.233Z,0.00
2018-03-29T04:11:28.206Z,0.00
2018-03-29T04:12:28.202Z,0.00
2018-03-29T04:13:28.196Z,0.00
2018-03-29T04:14:28.196Z,0.00
2018-03-29T04:15:28.188Z,0.00
2018-03-29T04:16:28.193Z,0.00
2018-03-29T04:17:28.174Z,0.00
2018-03-29T04:18:28.169Z,0.00
2018-03-29T04:19:28.170Z,0.00
2018-03-29T04:20:28.162Z,0.00
2018-03-29T04:21:28.151Z,0.00
2018-03-29T04:22:28.151Z,0.00
2018-03-29T04:23:28.143Z,0.00
2018-03-29T04:24:28.137Z,0.00
2018-03-29T04:25:28.135Z,0.00
2018-03-29T04:26:28.126Z,0.00
2018-03-29T04:27:28.126Z,0.00
2018-03-29T04:28:28.120Z,0.00
2018-03-29T04:29:28.116Z,0.00
2018-03-29T04:30:28.104Z,0.00
2018-03-29T04:31:28.101Z,0.00
2018-03-29T04:32:28.097Z,0.00
2018-03-29T04:33:28.089Z,0.00
2018-03-29T04:34:28.085Z,0.00
2018-03-29T04:35:28.081Z,0.00
2018-03-29T04:36:28.075Z,0.00
2018-03-29T04:37:28.070Z,0.00
2018-03-29T04:38:28.071Z,0.00
2018-03-29T04:39:28.063Z,0.00
2018-03-29T04:40:28.054Z,0.00
2018-03-29T04:41:28.054Z,0.00
2018-03-29T04:42:28.039Z,0.00
2018-03-29T04:43:28.053Z,0.00
2018-03-29T04:44:28.036Z,0.00
2018-03-29T04:45:28.027Z,0.00
2018-03-29T04:46:28.024Z,0.00
2018-03-29T04:47:28.017Z,0.00
2018-03-29T04:48:28.011Z,0.00
2018-03-29T04:49:28.011Z,0.00
2018-03-29T04:50:28.001Z,0.00
2018-03-29T04:51:27.996Z,0.00
2018-03-29T04:52:27.987Z,0.00
2018-03-29T04:53:27.982Z,0.00
2018-03-29T04:54:40.174Z,0.00
2018-03-29T04:55:40.169Z,0.00
2018-03-29T04:57:34.507Z,0.00
2018-03-29T04:58:34.474Z,0.00
2018-03-29T05:00:28.855Z,0.00
2018-03-29T05:01:28.868Z,0.00
2018-03-29T05:03:23.188Z,0.00
2018-03-29T05:04:23.206Z,0.00
2018-03-29T05:06:17.667Z,0.00
2018-03-29T05:07:17.725Z,0.00
2018-03-29T05:09:11.945Z,0.00
2018-03-29T05:10:12.028Z,0.00
2018-03-29T05:12:06.297Z,0.00
2018-03-29T05:13:06.503Z,0.00
2018-03-29T05:15:00.721Z,0.00
2018-03-29T05:16:00.719Z,0.00
2018-03-29T05:17:55.024Z,0.00
2018-03-29T05:18:55.015Z,0.00
2018-03-29T05:20:49.478Z,0.00
2018-03-29T05:21:49.456Z,0.00
2018-03-29T05:23:43.744Z,0.00
2018-03-29T05:24:43.707Z,0.00
2018-03-29T05:26:38.247Z,0.00
2018-03-29T05:27:38.298Z,0.00
2018-03-29T05:29:32.615Z,0.00
2018-03-29T05:30:32.624Z,0.00
2018-03-29T05:32:27.000Z,0.00
2018-03-29T05:33:27.120Z,0.00
2018-03-29T05:35:21.318Z,5.63
2018-03-29T05:36:21.351Z,0.00
2018-03-29T05:38:16.156Z,0.00
2018-03-29T05:39:16.059Z,5.63
2018-03-29T05:40:16.075Z,5.63
2018-03-29T05:41:15.985Z,5.63
2018-03-29T05:42:15.982Z,5.63
2018-03-29T05:43:15.975Z,5.63
2018-03-29T05:44:15.970Z,5.63
2018-03-29T05:45:15.975Z,5.63
2018-03-29T05:46:15.962Z,5.63
2018-03-29T05:47:15.958Z,5.63
2018-03-29T05:48:15.946Z,11.25
2018-03-29T05:49:15.943Z,5.63
2018-03-29T05:50:15.959Z,5.63
2018-03-29T05:51:15.932Z,5.63
2018-03-29T05:52:15.924Z,5.63
2018-03-29T05:53:15.917Z,5.63
2018-03-29T05:54:16.678Z,5.63
2018-03-29T05:55:15.907Z,5.63
2018-03-29T05:56:15.905Z,5.63
2018-03-29T05:57:15.896Z,5.63
2018-03-29T05:58:15.896Z,5.63
2018-03-29T05:59:15.887Z,5.63
2018-03-29T06:00:15.886Z,5.63
2018-03-29T06:01:15.874Z,5.63
2018-03-29T06:02:15.871Z,5.63
2018-03-29T06:03:15.949Z,5.63
2018-03-29T06:04:15.867Z,5.63
2018-03-29T06:05:15.855Z,5.63
2018-03-29T06:06:15.893Z,5.63
2018-03-29T06:07:16.673Z,5.63
2018-03-29T06:08:15.840Z,5.63
2018-03-29T06:09:15.831Z,5.63
2018-03-29T06:10:15.827Z,5.63
2018-03-29T06:11:16.700Z,5.63
2018-03-29T06:12:15.816Z,5.63
2018-03-29T06:13:16.759Z,5.63
2018-03-29T06:14:15.843Z,5.63
2018-03-29T06:15:15.808Z,5.63
2018-03-29T06:16:15.800Z,5.63
2018-03-29T06:17:15.796Z,5.63
2018-03-29T06:18:15.803Z,11.25
2018-03-29T06:19:15.863Z,11.25
2018-03-29T06:20:15.775Z,11.25
2018-03-29T06:21:15.770Z,16.88
2018-03-29T06:22:15.766Z,16.88
2018-03-29T06:23:17.848Z,16.88
2018-03-29T06:24:17.726Z,16.88
2018-03-29T06:25:16.830Z,16.88
2018-03-29T06:26:15.764Z,16.88
2018-03-29T06:27:15.816Z,22.50
2018-03-29T06:28:15.805Z,22.50
2018-03-29T06:29:15.732Z,22.50
2018-03-29T06:30:15.728Z,22.50
2018-03-29T06:31:15.721Z,22.50
2018-03-29T06:32:15.718Z,22.50
2018-03-29T06:33:15.714Z,28.13
2018-03-29T06:34:15.703Z,28.13
2018-03-29T06:35:15.728Z,28.13
2018-03-29T06:36:15.698Z,28.13
2018-03-29T06:37:17.860Z,28.13
2018-03-29T06:38:15.687Z,28.13
2018-03-29T06:39:15.684Z,33.75
2018-03-29T06:40:15.690Z,28.13
2018-03-29T06:41:15.673Z,33.75
2018-03-29T06:42:15.661Z,33.75
2018-03-29T06:43:15.664Z,33.75
2018-03-29T06:44:15.649Z,39.38
2018-03-29T06:45:15.645Z,39.38
2018-03-29T06:46:15.644Z,50.63
2018-03-29T06:47:15.643Z,56.25
2018-03-29T06:48:15.628Z,56.25
2018-03-29T06:49:16.241Z,61.88
2018-03-29T06:50:15.634Z,50.63
2018-03-29T06:51:15.648Z,39.38
2018-03-29T06:52:15.618Z,39.38
2018-03-29T06:53:17.177Z,50.63
2018-03-29T06:54:15.604Z,56.25
2018-03-29T06:55:15.596Z,56.25
2018-03-29T06:56:15.591Z,61.88
2018-03-29T06:57:15.585Z,67.50
2018-03-29T06:58:15.600Z,73.13
2018-03-29T06:59:15.583Z,84.38
2018-03-29T07:00:15.578Z,90.00
2018-03-29T07:01:15.588Z,90.00
2018-03-29T07:02:15.565Z,95.63
2018-03-29T07:03:15.557Z,95.63
2018-03-29T07:04:15.745Z,101.25
2018-03-29T07:05:15.548Z,95.63
2018-03-29T07:06:15.550Z,236.25
2018-03-29T07:07:15.539Z,101.25
2018-03-29T07:08:15.535Z,191.25
2018-03-29T07:09:15.538Z,101.25
2018-03-29T07:10:15.547Z,95.63
2018-03-29T07:11:15.550Z,101.25
2018-03-29T07:12:15.528Z,95.63
2018-03-29T07:13:15.520Z,90.00
2018-03-29T07:14:15.555Z,101.25
2018-03-29T07:15:15.513Z,112.50
2018-03-29T07:16:15.516Z,95.63
2018-03-29T07:17:16.259Z,106.88
2018-03-29T07:18:15.502Z,106.88
2018-03-29T07:19:15.527Z,118.13
2018-03-29T07:20:15.538Z,191.25
2018-03-29T07:21:15.488Z,112.50
2018-03-29T07:22:15.487Z,157.50
2018-03-29T07:23:15.522Z,140.63
2018-03-29T07:24:15.488Z,151.88
2018-03-29T07:25:15.490Z,106.88
2018-03-29T07:26:15.483Z,101.25
2018-03-29T07:27:15.468Z,106.88
2018-03-29T07:28:15.579Z,270.00
2018-03-29T07:29:15.511Z,129.38
2018-03-29T07:30:15.461Z,118.13
2018-03-29T07:31:15.455Z,112.50
2018-03-29T07:32:15.497Z,123.75
2018-03-29T07:33:15.462Z,135.00
2018-03-29T07:34:15.526Z,135.00
2018-03-29T07:35:15.445Z,135.00
2018-03-29T07:36:15.535Z,129.38
2018-03-29T07:37:15.444Z,123.75
2018-03-29T07:38:15.459Z,123.75
2018-03-29T07:39:15.518Z,129.38
2018-03-29T07:40:15.450Z,135.00
2018-03-29T07:41:15.496Z,140.63
2018-03-29T07:42:15.508Z,140.63
2018-03-29T07:43:15.624Z,135.00
2018-03-29T07:44:15.564Z,129.38
2018-03-29T07:45:15.425Z,157.50
2018-03-29T07:46:15.513Z,241.88
2018-03-29T07:47:15.420Z,247.50
2018-03-29T07:48:15.412Z,157.50
2018-03-29T07:49:15.575Z,151.88
2018-03-29T07:50:15.478Z,140.63
2018-03-29T07:51:15.479Z,135.00
2018-03-29T07:52:15.461Z,191.25
2018-03-29T07:53:15.456Z,241.88
2018-03-29T07:54:15.454Z,185.63
2018-03-29T07:55:15.424Z,180.00
2018-03-29T07:56:15.430Z,135.00
2018-03-29T07:57:15.409Z,146.25
2018-03-29T07:58:15.439Z,135.00
2018-03-29T07:59:15.383Z,135.00
2018-03-29T08:00:15.383Z,101.25
2018-03-29T08:01:15.507Z,95.63
2018-03-29T08:02:21.259Z,101.25
2018-03-29T08:03:15.372Z,101.25
2018-03-29T08:04:15.375Z,106.88
2018-03-29T08:05:15.385Z,112.50
2018-03-29T08:06:15.425Z,118.13
2018-03-29T08:07:15.365Z,129.38
2018-03-29T08:08:15.359Z,151.88
2018-03-29T08:09:15.406Z,129.38
2018-03-29T08:10:15.352Z,95.63
2018-03-29T08:11:15.355Z,90.00
2018-03-29T08:12:15.353Z,84.38
2018-03-29T08:13:15.350Z,73.13
2018-03-29T08:14:15.346Z,78.75
2018-03-29T08:15:15.346Z,90.00
2018-03-29T08:16:15.344Z,73.13
2018-03-29T08:17:15.341Z,61.88
2018-03-29T08:18:15.470Z,61.88
2018-03-29T08:19:15.358Z,61.88
2018-03-29T08:20:15.334Z,56.25
2018-03-29T08:21:15.331Z,50.63
2018-03-29T08:22:15.450Z,56.25
2018-03-29T08:23:15.408Z,61.88
2018-03-29T08:24:16.191Z,78.75
2018-03-29T08:25:15.310Z,73.13
2018-03-29T08:26:15.310Z,84.38
2018-03-29T08:27:15.307Z,90.00
2018-03-29T08:28:15.306Z,90.00
2018-03-29T08:29:15.301Z,90.00
2018-03-29T08:30:15.304Z,90.00
2018-03-29T08:31:15.298Z,95.63
2018-03-29T08:32:15.293Z,90.00
2018-03-29T08:33:15.290Z,78.75
2018-03-29T08:34:15.287Z,90.00
2018-03-29T08:35:15.289Z,118.13
2018-03-29T08:36:15.276Z,84.38
2018-03-29T08:37:15.286Z,67.50
2018-03-29T08:38:15.269Z,67.50
2018-03-29T08:39:15.270Z,73.13
2018-03-29T08:40:15.267Z,73.13
2018-03-29T08:41:15.264Z,73.13
2018-03-29T08:42:15.260Z,73.13
2018-03-29T08:43:15.257Z,78.75
2018-03-29T08:44:15.251Z,73.13
2018-03-29T08:45:15.252Z,73.13
2018-03-29T08:46:15.322Z,84.38
2018-03-29T08:47:15.245Z,84.38
2018-03-29T08:48:15.239Z,61.88
2018-03-29T08:49:15.240Z,56.25
2018-03-29T08:50:15.236Z,73.13
2018-03-29T08:51:15.229Z,56.25
2018-03-29T08:52:15.229Z,39.38
2018-03-29T08:53:15.230Z,33.75
2018-03-29T08:54:15.220Z,33.75
2018-03-29T08:55:15.222Z,39.38
2018-03-29T08:56:15.229Z,45.00
2018-03-29T08:57:15.207Z,39.38
2018-03-29T08:58:15.204Z,33.75
2018-03-29T08:59:15.201Z,33.75
2018-03-29T09:00:15.200Z,28.13
2018-03-29T09:01:15.197Z,28.13
2018-03-29T09:02:15.206Z,33.75
2018-03-29T09:03:15.202Z,39.38
2018-03-29T09:04:15.196Z,45.00
2018-03-29T09:05:15.176Z,56.25
2018-03-29T09:06:15.181Z,84.38
2018-03-29T09:07:15.176Z,326.25
2018-03-29T09:08:15.172Z,281.25
2018-03-29T09:09:15.168Z,298.13
2018-03-29T09:10:15.695Z,315.00
2018-03-29T09:11:15.156Z,382.50
2018-03-29T09:12:15.158Z,410.63
2018-03-29T09:13:15.149Z,376.88
2018-03-29T09:14:15.164Z,326.25
2018-03-29T09:15:15.144Z,838.13
2018-03-29T09:16:15.155Z,798.75
2018-03-29T09:17:15.135Z,860.63
2018-03-29T09:18:15.145Z,1001.25
2018-03-29T09:19:15.144Z,1231.88
2018-03-29T09:20:15.131Z,1181.25
2018-03-29T09:21:15.134Z,1147.50
2018-03-29T09:22:15.132Z,1023.75
2018-03-29T09:23:15.136Z,573.75
2018-03-29T09:24:15.136Z,264.38
2018-03-29T09:25:15.135Z,241.88
2018-03-29T09:26:15.137Z,264.38
2018-03-29T09:27:15.169Z,990.00
2018-03-29T09:28:15.141Z,371.25
2018-03-29T09:29:15.141Z,641.25
2018-03-29T09:30:15.143Z,225.00
2018-03-29T09:31:15.145Z,202.50
2018-03-29T09:32:15.148Z,180.00
2018-03-29T09:33:15.148Z,168.75
2018-03-29T09:34:15.151Z,174.38
2018-03-29T09:35:15.152Z,168.75
2018-03-29T09:36:15.152Z,146.25
2018-03-29T09:37:15.154Z,112.50
2018-03-29T09:38:15.153Z,95.63
2018-03-29T09:39:15.165Z,95.63
2018-03-29T09:40:15.158Z,78.75
2018-03-29T09:41:15.175Z,73.13
2018-03-29T09:42:15.163Z,73.13
2018-03-29T09:43:15.162Z,67.50
2018-03-29T09:44:15.153Z,61.88
2018-03-29T09:45:15.153Z,56.25
2018-03-29T09:46:15.155Z,50.63
2018-03-29T09:47:15.152Z,56.25
2018-03-29T09:48:15.153Z,61.88
2018-03-29T09:49:15.150Z,67.50
2018-03-29T09:50:15.152Z,61.88
2018-03-29T09:51:15.145Z,50.63
2018-03-29T09:52:15.146Z,45.00
2018-03-29T09:53:15.143Z,39.38
2018-03-29T09:54:15.140Z,39.38
2018-03-29T09:55:15.137Z,39.38
2018-03-29T09:56:15.132Z,39.38
2018-03-29T09:57:15.161Z,39.38
2018-03-29T09:58:15.141Z,39.38
2018-03-29T09:59:15.142Z,45.00
2018-03-29T10:00:15.139Z,45.00
2018-03-29T10:01:15.124Z,50.63
2018-03-29T10:02:15.211Z,50.63
2018-03-29T10:03:15.120Z,45.00
2018-03-29T10:04:15.115Z,45.00
2018-03-29T10:05:15.119Z,39.38
2018-03-29T10:06:15.112Z,39.38
2018-03-29T10:07:15.145Z,39.38
2018-03-29T10:08:15.106Z,39.38
2018-03-29T10:09:15.104Z,39.38
2018-03-29T10:10:15.101Z,39.38
2018-03-29T10:11:15.102Z,39.38
2018-03-29T10:12:15.146Z,45.00
2018-03-29T10:13:15.091Z,50.63
2018-03-29T10:14:15.093Z,61.88
2018-03-29T10:15:15.086Z,78.75
2018-03-29T10:16:15.086Z,78.75
2018-03-29T10:17:15.083Z,78.75
2018-03-29T10:18:15.077Z,67.50
2018-03-29T10:19:15.075Z,61.88
2018-03-29T10:20:15.077Z,56.25
2018-03-29T10:21:15.068Z,56.25
2018-03-29T10:22:15.062Z,50.63
2018-03-29T10:23:15.074Z,56.25
2018-03-29T10:24:15.059Z,61.88
2018-03-29T10:25:15.055Z,61.88
2018-03-29T10:26:15.053Z,61.88
2018-03-29T10:27:15.052Z,56.25
2018-03-29T10:28:15.047Z,50.63
2018-03-29T10:29:15.048Z,45.00
2018-03-29T10:30:15.099Z,39.38
2018-03-29T10:31:15.039Z,39.38
2018-03-29T10:32:15.037Z,39.38
2018-03-29T10:33:15.107Z,39.38
2018-03-29T10:34:15.028Z,39.38
2018-03-29T10:35:15.025Z,39.38
2018-03-29T10:36:15.035Z,39.38
2018-03-29T10:37:15.023Z,45.00
2018-03-29T10:38:15.036Z,45.00
2018-03-29T10:39:15.035Z,45.00
2018-03-29T10:40:15.009Z,45.00
2018-03-29T10:41:15.010Z,50.63
2018-03-29T10:42:15.003Z,56.25
2018-03-29T10:43:15.000Z,61.88
2018-03-29T10:44:14.996Z,61.88
2018-03-29T10:45:14.999Z,67.50
2018-03-29T10:46:15.062Z,73.13
2018-03-29T10:47:14.985Z,73.13
2018-03-29T10:48:14.982Z,78.75
2018-03-29T10:49:14.979Z,78.75
2018-03-29T10:50:14.978Z,78.75
2018-03-29T10:51:14.977Z,78.75
2018-03-29T10:52:14.970Z,73.13
2018-03-29T10:53:14.983Z,73.13
2018-03-29T10:54:14.968Z,67.50
2018-03-29T10:55:14.977Z,67.50
2018-03-29T10:56:14.958Z,61.88
2018-03-29T10:57:14.955Z,61.88
2018-03-29T10:58:14.951Z,56.25
2018-03-29T10:59:14.949Z,50.63
2018-03-29T11:00:14.952Z,45.00
2018-03-29T11:01:14.942Z,45.00
2018-03-29T11:02:14.959Z,45.00
2018-03-29T11:03:14.974Z,56.25
2018-03-29T11:04:14.933Z,67.50
2018-03-29T11:05:14.929Z,90.00
2018-03-29T11:06:14.933Z,101.25
2018-03-29T11:07:14.936Z,106.88
2018-03-29T11:08:14.945Z,129.38
2018-03-29T11:09:14.922Z,157.50
2018-03-29T11:10:14.919Z,208.13
2018-03-29T11:11:14.924Z,241.88
2018-03-29T11:12:14.918Z,258.75
2018-03-29T11:13:14.904Z,258.75
2018-03-29T11:14:14.901Z,241.88
2018-03-29T11:15:14.900Z,230.63
2018-03-29T11:16:14.896Z,230.63
2018-03-29T11:17:14.900Z,225.00
2018-03-29T11:18:14.897Z,219.38
2018-03-29T11:19:14.889Z,213.75
2018-03-29T11:20:14.885Z,208.13
2018-03-29T11:21:14.886Z,202.50
2018-03-29T11:22:14.884Z,202.50
2018-03-29T11:23:14.882Z,196.88
2018-03-29T11:24:14.877Z,191.25
2018-03-29T11:25:14.882Z,191.25
2018-03-29T11:26:14.875Z,185.63
2018-03-29T11:27:14.873Z,191.25
2018-03-29T11:28:14.879Z,191.25
2018-03-29T11:29:14.870Z,191.25
2018-03-29T11:30:14.869Z,196.88
2018-03-29T11:31:14.869Z,202.50
2018-03-29T11:32:14.874Z,208.13
2018-03-29T11:33:14.864Z,213.75
2018-03-29T11:34:14.863Z,174.38
2018-03-29T11:35:14.863Z,213.75
2018-03-29T11:36:14.860Z,191.25
2018-03-29T11:37:14.864Z,180.00
2018-03-29T11:38:14.871Z,135.00
2018-03-29T11:39:14.863Z,118.13
2018-03-29T11:40:14.856Z,112.50
2018-03-29T11:41:14.877Z,95.63
2018-03-29T11:42:14.864Z,78.75
2018-03-29T11:43:14.858Z,73.13
2018-03-29T11:44:14.854Z,61.88
2018-03-29T11:45:14.853Z,56.25
2018-03-29T11:46:14.863Z,56.25
2018-03-29T11:47:14.852Z,56.25
2018-03-29T11:48:14.853Z,56.25
2018-03-29T11:49:14.851Z,56.25
2018-03-29T11:50:14.855Z,56.25
2018-03-29T11:51:14.845Z,56.25
2018-03-29T11:52:14.854Z,50.63
2018-03-29T11:53:14.851Z,45.00
2018-03-29T11:54:14.841Z,39.38
2018-03-29T11:55:14.841Z,33.75
2018-03-29T11:56:14.838Z,33.75
2018-03-29T11:57:14.841Z,28.13
2018-03-29T11:58:14.838Z,28.13
2018-03-29T11:59:14.833Z,28.13
2018-03-29T12:00:14.832Z,33.75
2018-03-29T12:01:14.828Z,33.75
2018-03-29T12:02:14.826Z,33.75
2018-03-29T12:03:14.826Z,39.38
2018-03-29T12:04:14.831Z,39.38
2018-03-29T12:05:14.818Z,39.38
2018-03-29T12:06:14.827Z,39.38
2018-03-29T12:07:14.868Z,45.00
2018-03-29T12:08:14.814Z,50.63
2018-03-29T12:09:14.813Z,50.63
2018-03-29T12:10:14.813Z,50.63
2018-03-29T12:11:14.820Z,50.63
2018-03-29T12:12:14.808Z,50.63
2018-03-29T12:13:14.799Z,50.63
2018-03-29T12:14:14.800Z,50.63
2018-03-29T12:15:14.848Z,45.00
2018-03-29T12:16:14.793Z,45.00
2018-03-29T12:17:14.806Z,45.00
2018-03-29T12:18:14.792Z,39.38
2018-03-29T12:19:14.788Z,33.75
2018-03-29T12:20:14.786Z,33.75
2018-03-29T12:21:14.783Z,28.13
2018-03-29T12:22:14.779Z,28.13
2018-03-29T12:23:14.776Z,28.13
2018-03-29T12:24:14.774Z,28.13
2018-03-29T12:25:14.775Z,28.13
2018-03-29T12:26:14.774Z,28.13
2018-03-29T12:27:14.809Z,28.13
2018-03-29T12:28:14.763Z,28.13
2018-03-29T12:29:14.765Z,28.13
2018-03-29T12:30:14.760Z,22.50
2018-03-29T12:31:14.809Z,22.50
2018-03-29T12:32:14.754Z,16.88
2018-03-29T12:33:14.752Z,16.88
2018-03-29T12:34:14.812Z,16.88
2018-03-29T12:35:14.748Z,22.50
2018-03-29T12:36:14.743Z,28.13
2018-03-29T12:37:14.738Z,33.75
2018-03-29T12:38:14.734Z,39.38
2018-03-29T12:39:14.749Z,39.38
2018-03-29T12:40:14.735Z,39.38
2018-03-29T12:41:14.727Z,39.38
2018-03-29T12:42:14.723Z,39.38
2018-03-29T12:43:14.721Z,39.38
2018-03-29T12:44:14.716Z,39.38
2018-03-29T12:45:14.712Z,39.38
2018-03-29T12:46:14.711Z,39.38
2018-03-29T12:47:14.713Z,39.38
2018-03-29T12:48:14.712Z,45.00
2018-03-29T12:49:14.701Z,56.25
2018-03-29T12:50:14.699Z,67.50
2018-03-29T12:51:14.699Z,73.13
2018-03-29T12:52:14.692Z,78.75
2018-03-29T12:53:14.690Z,78.75
2018-03-29T12:54:16.212Z,84.38
2018-03-29T12:55:14.680Z,84.38
2018-03-29T12:56:14.683Z,90.00
2018-03-29T12:57:14.675Z,90.00
2018-03-29T12:58:14.692Z,90.00
2018-03-29T12:59:14.671Z,95.63
2018-03-29T13:00:14.709Z,101.25
2018-03-29T13:01:14.663Z,95.63
2018-03-29T13:02:14.662Z,135.00
2018-03-29T13:03:14.658Z,95.63
2018-03-29T13:04:14.655Z,101.25
2018-03-29T13:05:14.656Z,135.00
2018-03-29T13:06:14.679Z,129.38
2018-03-29T13:07:14.648Z,129.38
2018-03-29T13:08:14.650Z,168.75
2018-03-29T13:09:14.640Z,168.75
2018-03-29T13:10:14.645Z,174.38
2018-03-29T13:11:14.635Z,135.00
2018-03-29T13:12:14.663Z,140.63
2018-03-29T13:13:14.636Z,112.50